Startpagina
METAR-TAF:

METAR-TAF

Vliegvelden :

Nationaal park Kruger, Zuid-Afrika

breedte: 25-23-00S, lengte: 31-06-20E, hoogte: 862 m

Actueel weer

Dit bericht is 12 minuten geleden gemaakt, om 20:00 UTC
Wind 6 kt uit het noorden
Temperatuur 20°C
Vochtigheid 100%
Druk 1022 hPa

METAR: FAKN 242000Z AUTO 36006KT //// // ////// 20/20 Q1022

Tijdstip: 22:12 (20:12 UTC)

Verwachting

Dit bericht is 11 uur en het 12 minuten geleden gemaakt, om 09:00 UTC
Verwachting geldig van 24 om 10 UTC tot 24 om 18 UTC
Wind 3 kt uit variabele richting
Zicht 10 km of meer
Gebroken wolken op 2000 ft

TAF: FAKN 240900Z 2410/2418 VRB03KT 9999 BKN020 TX25/2413Z TN21/2418Z

Waarnemingen en weersverwachtingen van meer dan 4000 vliegvelden (METAR en TAF).

De beschikbare stations zijn de gele en rode punten op de kaart.

Ga met uw muis naar het station om de naam te zien.

Klik dan om waarnemingen en weersverwachtingen te zien.

kaart wijzigen: klik op de groene knoppen met een zwart kruis om in te zoomen, op de groene knop met een streepje om uit te zoomen of op de groene pijlen voor aangrenzende kaarten.


METAR-TAF: